Time;durP1;ratioP1;P1;durP2;ratioP2;P2;SDS_P1;SDS_P2;PMS_P1;PMS_P2;Temp;Humidity;BMP_temperature;BMP_pressure;BME280_temperature;BME280_humidity;BME280_pressure;Samples;Min_cycle;Max_cycle;Signal;HPM_P1;HPM_P2
2023/04/16 00:00:49;;;;;;;38.50;19.70;;;7.80;99.90;;;-144.05;86.41;56904.06;5038448;28;20029;-78
2023/04/16 00:03:15;;;;;;;39.03;20.55;;;7.90;99.90;;;-144.05;86.44;56918.94;5038398;28;20029;-78
2023/04/16 00:05:41;;;;;;;45.42;22.30;;;7.80;99.90;;;-144.05;86.77;56906.19;5038298;28;20033;-78
2023/04/16 00:08:07;;;;;;;38.60;19.80;;;7.90;99.90;;;-144.05;86.42;56904.06;5038197;28;20030;-77
2023/04/16 00:10:34;;;;;;;36.95;19.17;;;7.80;99.90;;;-144.05;86.40;56904.06;5040175;28;20557;-79
2023/04/16 00:13:00;;;;;;;40.28;21.20;;;7.80;99.90;;;-144.05;86.30;56912.56;5039875;28;20046;-78
2023/04/16 00:15:26;;;;;;;42.92;21.80;;;7.80;99.90;;;-144.05;86.70;56906.19;5039391;28;20029;-78
2023/04/16 00:17:52;;;;;;;47.42;21.42;;;7.80;99.90;;;-144.05;86.75;56897.69;5041057;28;20052;-79
2023/04/16 00:20:19;;;;;;;44.47;22.30;;;7.80;99.90;;;-144.05;86.60;56908.31;5056052;28;20073;-78
2023/04/16 00:22:45;;;;;;;41.58;21.60;;;7.80;99.90;;;-144.05;86.72;56901.94;5040886;28;20105;-79
2023/04/16 00:25:12;;;;;;;47.63;21.55;;;7.80;99.90;;;-144.05;86.72;56908.31;5039519;28;20036;-75
2023/04/16 00:27:38;;;;;;;45.72;22.33;;;7.80;99.90;;;-144.05;86.45;56929.53;5054548;28;20032;-79
2023/04/16 00:30:06;;;;;;;35.92;20.02;;;7.80;99.90;;;-144.05;86.47;56916.81;5039763;28;20037;-77
2023/04/16 00:32:32;;;;;;;42.70;21.33;;;7.80;99.90;;;-144.05;86.68;56935.91;5039464;28;20032;-78
2023/04/16 00:34:57;;;;;;;43.60;22.83;;;7.80;99.90;;;-144.05;86.37;56914.69;5038704;28;20781;-78
2023/04/16 00:37:23;;;;;;;45.17;22.63;;;7.80;99.90;;;-144.05;86.60;56904.06;5038525;28;20068;-77
2023/04/16 00:39:50;;;;;;;46.97;23.83;;;7.80;99.90;;;-144.05;86.82;56904.06;5039593;28;20025;-77
2023/04/16 00:42:16;;;;;;;47.63;23.13;;;7.90;99.90;;;-144.05;86.57;56904.06;5054853;28;20096;-79
2023/04/16 00:44:41;;;;;;;41.35;22.77;;;7.80;99.90;;;-144.05;86.70;56916.81;5039796;28;20097;-78
2023/04/16 00:47:08;;;;;;;42.53;22.27;;;7.80;99.90;;;-144.05;86.50;56935.91;5040530;28;20408;-77
2023/04/16 00:49:35;;;;;;;49.83;23.35;;;7.80;99.90;;;-144.05;86.40;56912.56;5038990;28;20033;-79
2023/04/16 00:52:02;;;;;;;50.17;22.95;;;7.80;99.90;;;-144.05;86.51;56914.69;5038836;28;20396;-80
2023/04/16 00:54:30;;;;;;;45.65;23.00;;;7.80;99.90;;;-144.05;86.52;56912.56;5039372;28;20056;-79
2023/04/16 00:56:58;;;;;;;42.03;23.02;;;7.80;99.90;;;-144.05;86.40;56897.69;5051241;28;20029;-79
2023/04/16 00:59:26;;;;;;;44.05;23.48;;;7.80;99.90;;;-144.05;86.35;56889.19;5039116;28;20089;-77
2023/04/16 01:01:51;;;;;;;46.72;23.20;;;7.80;99.90;;;-144.05;86.88;56889.19;5040049;28;20120;-78
2023/04/16 01:04:17;;;;;;;40.30;22.13;;;7.80;99.90;;;-144.05;86.82;56908.31;5040287;28;20158;-78
2023/04/16 01:06:43;;;;;;;48.83;23.92;;;7.80;99.90;;;-144.05;86.90;56901.94;5054765;28;20036;-77
2023/04/16 01:09:10;;;;;;;41.58;22.92;;;7.80;99.90;;;-144.05;86.54;56891.31;5039441;28;20036;-77
2023/04/16 01:11:36;;;;;;;44.25;22.90;;;7.80;99.90;;;-144.05;86.43;56899.81;5038549;28;20394;-79
2023/04/16 01:14:03;;;;;;;45.25;22.98;;;7.80;99.90;;;-144.05;86.69;56897.69;5039037;28;20092;-79
2023/04/16 01:16:29;;;;;;;44.42;22.20;;;7.80;99.90;;;-144.05;86.65;56918.94;5040070;28;20025;-78
2023/04/16 01:18:55;;;;;;;45.97;23.02;;;7.80;99.90;;;-144.05;86.33;56927.41;5039016;28;20035;-78
2023/04/16 01:21:21;;;;;;;41.95;23.83;;;7.80;99.90;;;-144.05;86.29;56906.19;5055171;28;20117;-80
2023/04/16 01:23:47;;;;;;;39.25;22.17;;;7.80;99.90;;;-144.05;86.30;56914.69;5040605;28;20128;-78
2023/04/16 01:26:13;;;;;;;43.92;22.13;;;7.80;99.90;;;-144.05;86.50;56921.06;5055155;28;20028;-79
2023/04/16 01:28:39;;;;;;;42.78;22.10;;;7.80;99.90;;;-144.05;86.30;56895.56;5041185;28;20021;-80
2023/04/16 01:31:05;;;;;;;43.25;21.45;;;7.80;99.90;;;-144.05;86.04;56893.44;5039468;28;20030;-77
2023/04/16 01:33:31;;;;;;;49.30;22.52;;;7.80;99.90;;;-144.05;86.33;56912.56;5038391;28;20025;-78
2023/04/16 01:35:56;;;;;;;42.42;21.67;;;7.80;99.90;;;-144.05;86.34;56884.94;5054984;28;20030;-79
2023/04/16 01:38:22;;;;;;;42.70;21.20;;;7.80;99.90;;;-144.05;86.42;56925.28;5039472;28;20040;-77
2023/04/16 01:40:48;;;;;;;45.53;22.00;;;7.90;99.90;;;-144.05;86.77;56884.94;5038566;28;20079;-79
2023/04/16 01:43:14;;;;;;;38.63;21.15;;;7.80;99.90;;;-144.05;87.08;56921.06;5037200;28;20056;-79
2023/04/16 01:45:41;;;;;;;47.33;20.88;;;7.80;99.90;;;-144.05;87.08;56914.69;5054804;28;20029;-76
2023/04/16 01:48:08;;;;;;;40.75;19.95;;;7.80;99.90;;;-144.05;86.74;56916.81;5051546;28;20120;-79
2023/04/16 01:50:34;;;;;;;40.17;20.50;;;7.80;99.90;;;-144.05;86.62;56925.28;5037497;28;20030;-78
2023/04/16 01:53:03;;;;;;;39.75;19.85;;;7.80;99.90;;;-144.05;86.91;56921.06;5037198;28;20107;-79
2023/04/16 01:55:32;;;;;;;37.80;20.48;;;7.80;99.90;;;-144.05;87.97;56910.44;5037454;28;20022;-78
2023/04/16 01:57:58;;;;;;;38.03;20.00;;;7.80;99.90;;;-144.05;87.59;56891.31;5046512;28;20017;-76
2023/04/16 02:00:24;;;;;;;40.03;20.13;;;7.90;99.90;;;-144.05;87.34;56912.56;5055407;28;20037;-79
2023/04/16 02:02:50;;;;;;;36.17;19.20;;;7.80;99.90;;;-144.05;87.17;56921.06;5041794;28;20440;-78
2023/04/16 02:05:16;;;;;;;40.50;19.83;;;7.80;99.90;;;-144.05;87.14;56893.44;5045005;28;20055;-79
2023/04/16 02:07:41;;;;;;;43.30;21.60;;;7.70;99.90;;;-144.05;88.07;56921.06;5045339;28;20386;-78
2023/04/16 02:10:09;;;;;;;38.97;21.55;;;7.80;99.90;;;-144.05;88.01;56938.03;5045287;28;20029;-79
2023/04/16 02:12:34;;;;;;;40.63;21.83;;;7.70;99.90;;;-144.05;87.25;56887.06;5044587;28;20023;-80
2023/04/16 02:15:01;;;;;;;47.67;21.45;;;7.70;99.90;;;-144.05;88.12;56904.06;5045124;28;20240;-79
2023/04/16 02:17:27;;;;;;;36.35;21.55;;;7.80;99.90;;;-144.05;87.55;56908.31;5044043;28;20034;-79
2023/04/16 02:19:52;;;;;;;42.75;21.63;;;7.70;99.90;;;-144.05;87.26;56931.66;5044528;28;20135;-79
2023/04/16 02:22:18;;;;;;;43.47;22.55;;;7.80;99.90;;;-144.05;86.94;56925.28;5046267;28;20060;-79
2023/04/16 02:24:44;;;;;;;45.15;21.75;;;7.80;99.90;;;-144.05;87.22;56908.31;5046709;28;20104;-79
2023/04/16 02:27:10;;;;;;;43.38;22.15;;;7.80;99.90;;;-144.05;87.17;56923.19;5047439;28;20029;-79
2023/04/16 02:29:36;;;;;;;43.33;21.90;;;7.80;99.90;;;-144.05;87.15;56904.06;5046519;28;20393;-79
2023/04/16 02:32:02;;;;;;;44.80;22.65;;;7.80;99.90;;;-144.05;87.44;56897.69;5047650;28;20033;-79
2023/04/16 02:34:27;;;;;;;48.40;23.13;;;7.80;99.90;;;-144.05;87.19;56906.19;5047829;28;20037;-79
2023/04/16 02:36:54;;;;;;;49.75;23.45;;;7.80;99.90;;;-144.05;86.93;56891.31;5047465;28;20108;-78
2023/04/16 02:39:20;;;;;;;45.63;24.58;;;7.80;99.90;;;-144.05;87.13;56931.66;5062019;28;20053;-78
2023/04/16 02:41:45;;;;;;;54.78;25.10;;;7.80;99.90;;;-144.05;86.88;56933.78;5047805;28;20041;-79
2023/04/16 02:44:11;;;;;;;47.85;23.98;;;7.80;99.90;;;-144.05;87.36;56925.28;5063155;28;20030;-79
2023/04/16 02:46:37;;;;;;;47.40;24.05;;;7.90;99.90;;;-144.05;87.07;56876.44;5048049;28;20029;-79
2023/04/16 02:49:03;;;;;;;49.70;24.23;;;7.90;99.90;;;-144.05;86.96;56887.06;5045574;28;20030;-79
2023/04/16 02:51:29;;;;;;;45.15;23.48;;;7.90;99.90;;;-144.05;86.69;56916.81;5041655;28;20025;-79
2023/04/16 02:53:54;;;;;;;45.78;25.02;;;7.90;99.90;;;-144.05;86.67;56925.28;5057767;28;20032;-79
2023/04/16 02:56:20;;;;;;;50.15;25.17;;;8.00;99.90;;;-144.05;86.74;56925.28;5043583;28;20041;-77
2023/04/16 02:58:46;;;;;;;47.33;24.50;;;7.90;99.90;;;-144.05;87.07;56912.56;5045710;28;20034;-79
2023/04/16 03:01:12;;;;;;;48.13;25.15;;;7.90;99.90;;;-144.05;86.42;56904.06;5044991;28;20033;-78
2023/04/16 03:03:38;;;;;;;45.00;24.83;;;7.90;99.90;;;-144.05;86.71;56923.19;5042440;28;20408;-79
2023/04/16 03:06:04;;;;;;;51.63;26.15;;;7.90;99.90;;;-144.05;87.24;56929.53;5057097;28;20022;-77
2023/04/16 03:08:30;;;;;;;51.92;25.70;;;7.90;99.90;;;-144.05;86.53;56927.41;5042026;28;20029;-78
2023/04/16 03:10:56;;;;;;;54.40;25.75;;;7.90;99.90;;;-144.05;86.49;56908.31;5042184;28;20029;-79
2023/04/16 03:13:21;;;;;;;47.13;24.63;;;7.90;99.90;;;-144.05;86.54;56921.06;5056982;28;20025;-79
2023/04/16 03:15:49;;;;;;;44.85;24.83;;;7.90;99.90;;;-144.05;86.74;56918.94;5041143;28;20021;-78
2023/04/16 03:18:15;;;;;;;52.38;25.60;;;7.90;99.90;;;-144.05;86.56;56921.06;5043576;28;20053;-78
2023/04/16 03:20:41;;;;;;;45.85;25.20;;;8.00;99.90;;;-144.05;86.55;56895.56;5041977;28;20101;-78
2023/04/16 03:23:06;;;;;;;52.42;25.35;;;7.90;99.90;;;-144.05;86.14;56906.19;5042870;28;20040;-79
2023/04/16 03:25:32;;;;;;;48.30;26.25;;;8.00;99.90;;;-144.05;86.35;56895.56;5058015;28;20060;-78
2023/04/16 03:27:58;;;;;;;51.97;25.85;;;8.00;99.90;;;-144.05;86.55;56906.19;5057354;28;20028;-78
2023/04/16 03:30:24;;;;;;;46.85;25.52;;;8.00;99.90;;;-144.05;86.07;56918.94;5058163;28;20489;-78
2023/04/16 03:32:50;;;;;;;48.10;24.75;;;8.00;99.90;;;-144.05;86.29;56929.53;5043401;28;20029;-78
2023/04/16 03:35:16;;;;;;;41.22;22.58;;;8.00;99.90;;;-144.05;85.93;56916.81;5040795;28;20029;-78
2023/04/16 03:37:42;;;;;;;44.25;23.80;;;8.00;99.90;;;-144.05;85.96;56893.44;5042627;28;20063;-78
2023/04/16 03:40:08;;;;;;;49.40;24.65;;;8.10;99.90;;;-144.05;86.32;56906.19;5041776;28;20041;-78
2023/04/16 03:42:35;;;;;;;49.15;25.83;;;8.00;99.90;;;-144.05;86.10;56914.69;5042121;28;20030;-78
2023/04/16 03:45:00;;;;;;;46.67;24.45;;;8.00;99.90;;;-144.05;86.22;56923.19;5041052;28;20028;-78
2023/04/16 03:47:26;;;;;;;49.97;24.95;;;8.00;99.90;;;-144.05;85.91;56921.06;5056390;28;20034;-79
2023/04/16 03:49:52;;;;;;;48.95;24.30;;;8.00;99.90;;;-144.05;85.82;56904.06;5041097;28;20531;-79
2023/04/16 03:52:18;;;;;;;51.78;25.20;;;8.10;99.90;;;-144.05;85.91;56908.31;5044983;28;20104;-79
2023/04/16 03:54:44;;;;;;;45.75;24.80;;;8.10;99.90;;;-144.05;85.99;56908.31;5043152;28;20033;-78
2023/04/16 03:57:10;;;;;;;46.78;24.75;;;8.10;99.90;;;-144.05;85.71;56895.56;5039510;28;20052;-78
2023/04/16 03:59:35;;;;;;;50.22;25.88;;;8.10;99.90;;;-144.05;85.73;56906.19;5039865;28;20034;-78
2023/04/16 04:02:01;;;;;;;52.83;24.83;;;8.20;99.90;;;-144.05;85.94;56893.44;5041681;28;20156;-79
2023/04/16 04:04:27;;;;;;;53.53;25.83;;;8.10;99.90;;;-144.05;85.84;56933.78;5040250;28;20144;-78
2023/04/16 04:06:53;;;;;;;51.42;25.73;;;8.10;99.90;;;-144.05;85.57;56916.81;5040949;28;20033;-77
2023/04/16 04:09:18;;;;;;;59.90;26.30;;;8.10;99.90;;;-144.05;85.57;56904.06;5039660;28;20041;-77
2023/04/16 04:11:44;;;;;;;52.67;27.80;;;8.10;99.90;;;-144.05;85.80;56910.44;5041643;28;20398;-79
2023/04/16 04:14:10;;;;;;;52.42;26.75;;;8.10;99.90;;;-144.05;85.72;56910.44;5058767;28;20033;-79
2023/04/16 04:16:36;;;;;;;54.97;27.20;;;8.10;99.90;;;-144.05;85.89;56906.19;5038258;28;20426;-80
2023/04/16 04:19:02;;;;;;;62.20;28.80;;;8.10;99.90;;;-144.05;85.87;56918.94;5038896;28;20043;-79
2023/04/16 04:21:30;;;;;;;62.15;27.35;;;8.20;99.90;;;-144.05;85.92;56927.41;5040391;28;20069;-79
2023/04/16 04:23:56;;;;;;;56.83;27.20;;;8.10;99.90;;;-144.05;85.86;56908.31;5055425;28;20014;-76
2023/04/16 04:26:22;;;;;;;54.25;27.98;;;8.10;99.90;;;-144.05;85.69;56921.06;5046976;28;20042;-79
2023/04/16 04:28:48;;;;;;;64.13;28.48;;;8.10;99.90;;;-144.05;85.95;56916.81;5044390;28;20093;-77
2023/04/16 04:31:14;;;;;;;60.47;30.15;;;8.20;99.90;;;-144.05;85.86;56923.19;5061958;28;20041;-78
2023/04/16 04:33:40;;;;;;;61.78;30.13;;;8.20;99.90;;;-144.05;85.76;56882.81;5043948;28;20056;-79
2023/04/16 04:36:06;;;;;;;58.80;29.17;;;8.20;99.90;;;-144.05;85.96;56918.94;5042004;28;20021;-78
2023/04/16 04:38:32;;;;;;;64.72;28.30;;;8.20;99.90;;;-144.05;85.57;56901.94;5040472;28;20044;-78
2023/04/16 04:40:58;;;;;;;60.92;29.00;;;8.20;99.90;;;-144.05;85.45;56893.44;5039618;28;20025;-77
2023/04/16 04:43:24;;;;;;;65.88;28.75;;;8.20;99.90;;;-144.05;85.56;56929.53;5040746;28;20029;-78
2023/04/16 04:45:50;;;;;;;59.45;27.65;;;8.20;99.90;;;-144.05;85.49;56912.56;5039452;28;20049;-78
2023/04/16 04:48:16;;;;;;;57.75;28.60;;;8.20;99.90;;;-144.05;85.34;56895.56;5056190;28;20022;-79
2023/04/16 04:50:45;;;;;;;57.63;28.60;;;8.20;99.90;;;-144.05;85.37;56921.06;5040246;28;20095;-79
2023/04/16 04:53:11;;;;;;;56.83;29.27;;;8.20;99.90;;;-144.05;85.73;56908.31;5041618;28;20025;-78
2023/04/16 04:55:38;;;;;;;61.88;29.75;;;8.20;99.90;;;-144.05;85.55;56904.06;5040275;28;20037;-76
2023/04/16 04:58:06;;;;;;;66.20;29.98;;;8.20;99.90;;;-144.05;85.49;56916.81;5056924;28;20056;-78
2023/04/16 05:00:34;;;;;;;59.47;28.80;;;8.20;99.90;;;-144.05;85.84;56933.78;5055733;28;20030;-77
2023/04/16 05:03:10;;;;;;;64.40;31.23;;;8.20;99.90;;;-144.05;85.71;56897.69;5039899;28;20026;-78
2023/04/16 05:05:36;;;;;;;;;;;8.20;99.90;;;-144.05;85.03;56925.28;5040329;28;20105;-77
2023/04/16 05:08:02;;;;;;;64.80;27.77;;;8.20;99.90;;;-144.05;85.22;56927.41;5041960;28;19913;-79
2023/04/16 05:10:27;;;;;;;60.13;28.50;;;8.20;99.90;;;-144.05;85.05;56948.66;5041187;28;20524;-77
2023/04/16 05:12:53;;;;;;;62.45;29.95;;;8.20;99.90;;;-144.05;85.21;56929.53;5058867;28;20162;-80
2023/04/16 05:15:19;;;;;;;65.13;31.35;;;8.20;99.90;;;-144.05;85.41;56916.81;5043615;28;20037;-79
2023/04/16 05:17:45;;;;;;;56.25;29.23;;;8.20;99.90;;;-144.05;85.29;56901.94;5044706;28;20152;-79
2023/04/16 05:20:11;;;;;;;63.20;29.17;;;8.20;99.90;;;-144.05;85.07;56912.56;5053546;28;20026;-77
2023/04/16 05:22:37;;;;;;;62.03;29.90;;;8.20;99.90;;;-144.05;85.37;56933.78;5041491;28;20025;-77
2023/04/16 05:25:03;;;;;;;59.22;29.88;;;8.20;99.90;;;-144.05;85.14;56910.44;5055731;28;20401;-77
2023/04/16 05:27:29;;;;;;;65.72;31.85;;;8.20;99.90;;;-144.05;85.49;56908.31;5039800;28;20041;-80
2023/04/16 05:29:55;;;;;;;65.50;29.90;;;8.20;99.90;;;-144.05;85.43;56918.94;5042132;28;20033;-79
2023/04/16 05:32:25;;;;;;;59.47;28.85;;;8.30;99.90;;;-144.05;84.96;56918.94;5058496;28;20025;-79
2023/04/16 05:34:50;;;;;;;60.53;31.08;;;8.30;99.90;;;-144.05;84.66;56908.31;5056713;28;20060;-78
2023/04/16 05:37:16;;;;;;;57.97;30.25;;;8.30;99.90;;;-144.05;84.75;56923.19;5039465;28;20032;-78
2023/04/16 05:39:42;;;;;;;54.50;29.73;;;8.20;99.90;;;-144.05;84.54;56897.69;5057613;28;20043;-79
2023/04/16 05:42:08;;;;;;;56.10;30.30;;;8.30;99.90;;;-144.05;84.58;56929.53;5044553;28;20021;-79
2023/04/16 05:44:34;;;;;;;53.53;28.70;;;8.30;99.90;;;-144.05;83.81;56904.06;5044103;28;20025;-78
2023/04/16 05:46:59;;;;;;;59.63;28.73;;;8.30;99.90;;;-144.05;83.61;56914.69;5043734;28;20026;-78
2023/04/16 05:49:25;;;;;;;60.38;29.83;;;8.30;99.90;;;-144.05;83.91;56887.06;5041853;28;20029;-77
2023/04/16 05:51:51;;;;;;;55.70;28.48;;;8.30;99.90;;;-144.05;83.61;56906.19;5044831;28;20089;-78
2023/04/16 05:54:17;;;;;;;60.90;29.90;;;8.30;99.90;;;-144.05;83.56;56923.19;5043502;28;20033;-79
2023/04/16 05:56:43;;;;;;;55.13;29.17;;;8.40;99.90;;;-144.05;83.24;56901.94;5041313;28;20026;-77
2023/04/16 05:59:09;;;;;;;54.75;29.70;;;8.40;99.90;;;-144.05;83.24;56923.19;5041700;28;20022;-79
2023/04/16 06:01:35;;;;;;;54.22;28.77;;;8.40;99.90;;;-144.05;82.88;56931.66;5044450;28;20037;-77
2023/04/16 06:04:01;;;;;;;63.53;30.42;;;8.40;99.90;;;-144.05;82.62;56916.81;5045042;28;20559;-78
2023/04/16 06:06:26;;;;;;;64.88;31.15;;;8.40;99.90;;;-144.05;82.49;56889.19;5044539;28;20061;-78
2023/04/16 06:08:52;;;;;;;53.53;28.63;;;8.40;99.90;;;-144.05;82.39;56910.44;5043145;28;20033;-79
2023/04/16 06:11:18;;;;;;;51.13;27.52;;;8.50;99.90;;;-144.05;82.27;56914.69;5057912;28;20040;-78
2023/04/16 06:13:44;;;;;;;52.47;27.85;;;8.50;99.90;;;-144.05;81.69;56908.31;5044868;28;20033;-78
2023/04/16 06:16:10;;;;;;;57.20;28.95;;;8.50;99.90;;;-144.05;81.52;56904.06;5045736;28;20045;-78
2023/04/16 06:18:36;;;;;;;52.58;28.05;;;8.50;99.90;;;-144.05;81.67;56895.56;5059963;28;20056;-77
2023/04/16 06:21:03;;;;;;;52.10;28.23;;;8.50;99.90;;;-144.05;81.57;56904.06;5045977;28;20523;-79
2023/04/16 06:23:29;;;;;;;55.42;27.80;;;8.60;99.90;;;-144.05;81.36;56891.31;5060167;28;20025;-77
2023/04/16 06:25:55;;;;;;;54.58;28.75;;;8.70;99.90;;;-144.05;80.97;56895.56;5044750;28;20034;-79
2023/04/16 06:28:21;;;;;;;45.38;26.45;;;8.70;99.90;;;-144.05;80.65;56914.69;5046747;28;20021;-79
2023/04/16 06:30:47;;;;;;;49.33;28.17;;;8.80;99.90;;;-144.05;80.09;56921.06;5044392;28;20033;-79
2023/04/16 06:33:13;;;;;;;52.17;27.58;;;8.80;99.90;;;-144.05;80.42;56923.19;5061216;28;20029;-78
2023/04/16 06:35:39;;;;;;;49.58;27.02;;;8.80;99.90;;;-144.05;79.62;56908.31;5043443;28;20094;-79
2023/04/16 06:38:04;;;;;;;53.70;29.30;;;8.90;99.90;;;-144.05;79.76;56916.81;5061732;28;20052;-78
2023/04/16 06:40:30;;;;;;;49.90;27.25;;;8.90;99.90;;;-144.05;79.54;56904.06;5043493;28;20072;-77
2023/04/16 06:42:56;;;;;;;47.15;27.30;;;8.90;99.90;;;-144.05;79.77;56910.44;5043442;28;20040;-79
2023/04/16 06:45:22;;;;;;;58.58;33.08;;;9.00;99.90;;;-144.05;79.01;56912.56;5042940;28;20127;-78
2023/04/16 06:47:48;;;;;;;47.72;28.73;;;9.00;99.90;;;-144.05;79.04;56923.19;5052871;28;20037;-77
2023/04/16 06:50:14;;;;;;;50.70;26.85;;;9.00;99.90;;;-144.05;78.86;56931.66;5050958;28;20420;-77
2023/04/16 06:52:40;;;;;;;44.45;26.48;;;9.10;99.90;;;-144.05;78.68;56916.81;5044533;28;20124;-79
2023/04/16 06:55:08;;;;;;;48.40;26.70;;;9.10;99.90;;;-144.05;78.50;56895.56;5045297;28;20029;-79
2023/04/16 06:57:35;;;;;;;48.38;30.13;;;9.10;99.90;;;-144.05;78.67;56923.19;5045922;28;20045;-80
2023/04/16 07:00:04;;;;;;;75.07;36.42;;;9.10;99.90;;;-144.05;78.35;56899.81;5045550;28;20033;-76
2023/04/16 07:02:30;;;;;;;49.00;25.63;;;9.10;99.90;;;-144.05;78.48;56931.66;5067737;28;20029;-79
2023/04/16 07:04:55;;;;;;;47.88;28.05;;;9.10;99.90;;;-144.05;78.67;56897.69;5062536;28;20065;-78
2023/04/16 07:07:21;;;;;;;48.60;26.38;;;9.00;99.90;;;-144.05;78.62;56906.19;5047751;28;20053;-78
2023/04/16 07:09:47;;;;;;;52.63;29.10;;;9.10;99.90;;;-144.05;78.65;56938.03;5042853;28;20409;-79
2023/04/16 07:12:13;;;;;;;47.85;28.85;;;9.10;99.90;;;-144.05;78.68;56893.44;5044875;28;20038;-75
2023/04/16 07:14:39;;;;;;;45.88;25.38;;;9.10;99.90;;;-144.05;78.21;56908.31;5044440;28;20037;-78
2023/04/16 07:17:05;;;;;;;45.17;26.45;;;9.00;99.90;;;-144.05;78.22;56908.31;5044581;28;20030;-79
2023/04/16 07:19:31;;;;;;;48.30;27.63;;;9.10;99.90;;;-144.05;77.89;56925.28;5042243;28;20040;-78
2023/04/16 07:22:01;;;;;;;45.15;26.25;;;9.00;99.90;;;-144.05;78.07;56918.94;5042197;28;20100;-78
2023/04/16 07:24:27;;;;;;;45.63;27.13;;;9.00;99.90;;;-144.05;77.88;56914.69;5044105;28;20083;-78
2023/04/16 07:26:52;;;;;;;46.67;27.10;;;9.00;99.90;;;-144.05;78.23;56914.69;5042048;28;20145;-80
2023/04/16 07:29:18;;;;;;;43.90;27.13;;;9.10;99.90;;;-144.05;77.68;56908.31;5040358;28;20484;-77
2023/04/16 07:31:45;;;;;;;44.10;26.38;;;9.10;99.90;;;-144.05;77.60;56895.56;5044479;28;20033;-79
2023/04/16 07:34:11;;;;;;;50.45;27.27;;;9.10;99.90;;;-144.05;77.22;56921.06;5043096;28;20026;-77
2023/04/16 07:36:37;;;;;;;44.80;26.45;;;9.20;99.90;;;-144.05;76.81;56931.66;5039940;28;20190;-77
2023/04/16 07:39:06;;;;;;;43.97;26.27;;;9.30;99.90;;;-144.05;76.10;56906.19;5038514;28;20055;-77
2023/04/16 07:41:32;;;;;;;42.60;25.65;;;9.40;99.90;;;-144.05;76.17;56897.69;5037739;28;20033;-78
2023/04/16 07:43:58;;;;;;;42.15;26.63;;;9.50;99.90;;;-144.05;75.53;56914.69;5038614;28;20066;-76
2023/04/16 07:46:24;;;;;;;43.90;25.67;;;9.50;99.90;;;-144.05;74.99;56918.94;5037507;28;20127;-77
2023/04/16 07:48:50;;;;;;;41.95;25.88;;;9.60;99.90;;;-144.05;74.54;56914.69;5039400;28;20601;-76
2023/04/16 07:51:16;;;;;;;44.13;25.60;;;9.70;99.90;;;-144.05;74.09;56904.06;5039786;28;20258;-78
2023/04/16 07:53:42;;;;;;;44.97;25.50;;;9.70;99.90;;;-144.05;74.43;56861.56;5040146;28;20044;-77
2023/04/16 07:56:08;;;;;;;39.33;24.00;;;9.70;99.90;;;-144.05;74.44;56910.44;5055739;28;20497;-78
2023/04/16 07:58:34;;;;;;;37.92;24.05;;;9.60;99.90;;;-144.05;74.29;56908.31;5053719;28;20037;-79
2023/04/16 08:01:01;;;;;;;43.38;26.27;;;9.50;99.90;;;-144.05;74.59;56918.94;5036372;28;20464;-80
2023/04/16 08:03:26;;;;;;;38.85;24.20;;;9.60;99.90;;;-144.05;74.48;56897.69;5038853;28;20032;-80
2023/04/16 08:05:52;;;;;;;38.63;24.75;;;9.60;99.90;;;-144.05;74.54;56921.06;5036236;28;20030;-78
2023/04/16 08:08:18;;;;;;;39.10;24.40;;;9.60;99.90;;;-144.05;74.02;56895.56;5040113;28;20033;-78
2023/04/16 08:10:44;;;;;;;47.22;25.52;;;9.50;99.90;;;-144.05;74.07;56927.41;5037369;28;20029;-78
2023/04/16 08:13:10;;;;;;;38.70;23.98;;;9.60;99.90;;;-144.05;74.23;56921.06;5041139;28;20041;-79
2023/04/16 08:15:35;;;;;;;44.10;23.88;;;9.60;99.90;;;-144.05;74.29;56914.69;5041469;28;20036;-79
2023/04/16 08:18:01;;;;;;;39.47;23.50;;;9.40;99.90;;;-144.05;74.24;56916.81;5040175;28;20033;-76
2023/04/16 08:20:27;;;;;;;38.70;24.70;;;9.50;99.90;;;-144.05;74.16;56925.28;5042134;28;20025;-77
2023/04/16 08:22:54;;;;;;;41.95;25.60;;;9.50;99.90;;;-144.05;74.53;56929.53;5039579;28;20045;-77
2023/04/16 08:25:20;;;;;;;39.08;24.10;;;9.50;99.90;;;-144.05;73.87;56927.41;5039712;28;20484;-77
2023/04/16 08:27:46;;;;;;;39.92;24.58;;;9.50;99.90;;;-144.05;73.23;56929.53;5039749;28;20029;-78
2023/04/16 08:30:11;;;;;;;40.53;25.38;;;9.40;99.90;;;-144.05;73.68;56931.66;5055122;28;20025;-78
2023/04/16 08:32:37;;;;;;;38.67;25.20;;;9.40;99.90;;;-144.05;73.33;56914.69;5039807;28;20030;-78
2023/04/16 08:35:04;;;;;;;38.45;25.15;;;9.40;99.90;;;-144.05;73.91;56912.56;5037866;28;20516;-78
2023/04/16 08:37:30;;;;;;;48.80;28.05;;;9.50;99.90;;;-144.05;73.61;56916.81;5039119;28;20098;-79
2023/04/16 08:39:56;;;;;;;38.90;24.40;;;9.60;99.90;;;-144.05;73.11;56916.81;5039924;28;20064;-77
2023/04/16 08:42:32;;;;;;;40.70;23.65;;;9.70;99.90;;;-144.05;72.76;56923.19;5039630;28;20549;-76
2023/04/16 08:45:12;;;;;;;37.90;24.30;;;9.80;99.90;;;-144.05;72.44;56895.56;5039892;28;20069;-77
2023/04/16 08:47:40;;;;;;;37.17;24.15;;;9.80;99.90;;;-144.05;71.80;56908.31;5052552;28;20132;-76
2023/04/16 08:50:10;;;;;;;38.97;24.42;;;9.90;99.90;;;-144.05;71.74;56916.81;5050686;28;20040;-77
2023/04/16 08:52:45;;;;;;;41.47;23.83;;;10.00;99.90;;;-144.05;71.63;56929.53;5035494;28;20025;-77
2023/04/16 08:55:22;;;;;;;36.03;24.20;;;9.90;99.90;;;-144.05;71.62;56914.69;5035239;28;20025;-78
2023/04/16 08:57:56;;;;;;;37.03;23.60;;;10.00;99.90;;;-144.05;71.09;56921.06;5036310;28;20037;-77
2023/04/16 09:00:23;;;;;;;47.88;25.65;;;10.00;99.90;;;-144.05;71.27;56882.81;5036868;28;20033;-78
2023/04/16 09:02:50;;;;;;;36.22;24.77;;;10.10;99.90;;;-144.05;70.99;56904.06;5038537;28;20017;-78
2023/04/16 09:05:20;;;;;;;36.85;24.02;;;10.10;99.90;;;-144.05;70.93;56938.03;5038647;28;20045;-78
2023/04/16 09:07:47;;;;;;;36.40;22.67;;;10.20;99.90;;;-144.05;70.30;56897.69;5038516;28;20075;-78
2023/04/16 09:10:15;;;;;;;37.78;23.65;;;10.20;99.90;;;-144.05;70.31;56884.94;5043583;28;20029;-78
2023/04/16 09:12:43;;;;;;;37.35;24.48;;;10.20;99.90;;;-144.05;70.53;56912.56;5055455;28;20029;-82
2023/04/16 09:15:13;;;;;;;38.35;24.08;;;10.20;99.90;;;-144.05;70.72;56921.06;5059114;28;20515;-81
2023/04/16 09:17:39;;;;;;;39.30;24.75;;;10.20;99.90;;;-144.05;70.38;56897.69;5055872;28;20040;-81
2023/04/16 09:20:09;;;;;;;39.80;25.17;;;10.10;99.90;;;-144.05;70.70;56910.44;5038288;28;20025;-80
2023/04/16 09:22:36;;;;;;;38.53;25.17;;;10.00;99.90;;;-144.05;70.36;56904.06;5038801;28;20025;-80
2023/04/16 09:25:02;;;;;;;37.55;23.75;;;10.00;99.90;;;-144.05;70.49;56927.41;5037703;28;20053;-80
2023/04/16 09:27:30;;;;;;;40.90;25.63;;;10.00;99.90;;;-144.05;70.66;56893.44;5037482;28;20025;-80
2023/04/16 09:29:56;;;;;;;38.45;23.73;;;10.00;99.90;;;-144.05;70.55;56914.69;5037946;28;20068;-78
2023/04/16 09:32:27;;;;;;;39.03;25.10;;;10.00;99.90;;;-144.05;71.27;56929.53;5038271;28;20040;-79
2023/04/16 09:34:58;;;;;;;40.67;25.17;;;10.00;99.90;;;-144.05;70.76;56933.78;5057519;28;20069;-81
2023/04/16 09:37:30;;;;;;;45.88;25.10;;;10.00;99.90;;;-144.05;70.73;56910.44;5043870;28;20029;-79
2023/04/16 09:40:03;;;;;;;38.42;24.85;;;10.10;99.90;;;-144.05;70.57;56918.94;5040263;28;20420;-81
2023/04/16 09:42:34;;;;;;;42.28;26.23;;;10.20;99.90;;;-144.05;69.78;56901.94;5038207;28;20115;-81
2023/04/16 09:45:00;;;;;;;39.63;25.63;;;10.50;99.90;;;-144.05;69.11;56914.69;5037333;28;20048;-80
2023/04/16 09:47:46;;;;;;;39.67;25.33;;;10.70;99.90;;;-144.05;68.48;56901.94;5052351;28;20029;-80
2023/04/16 09:50:19;;;;;;;38.65;24.85;;;10.70;99.90;;;-144.05;68.32;56904.06;5037533;28;20025;-79
2023/04/16 09:52:50;;;;;;;35.88;24.08;;;10.80;99.90;;;-144.05;67.95;56895.56;5036957;28;20492;-80
2023/04/16 09:55:22;;;;;;;37.28;23.88;;;10.90;99.90;;;-144.05;67.71;56893.44;5039984;28;20075;-78
2023/04/16 09:57:57;;;;;;;32.70;21.05;;;10.90;99.90;;;-144.05;67.72;56906.19;5041088;28;20025;-80